Terminal Aerodrome Forecast
Issued by NWS

Home | Current Version | Previous Version | Text Only | Print | Product List | Glossary On
Versions: 1 2 3 4 5 6 7 8 9 10 11 12 13 14 15 16 17 18 19 20 21 22 23 24 25
000
FTUS46 KSGX 300917 AAA
TAFSAN
TAF AMD
KSAN 300917Z 3009/3112 VRB04KT P6SM FEW250
     FM301200 VRB04KT P6SM VCFG SCT005
      TEMPO 3013/3016 4SM BR BKN004
     FM301600 18007KT P6SM SCT009
     FM301900 21010KT P6SM SCT015
     FM310000 25006KT P6SM BKN025
     FM311000 VRB04KT P6SM SCT025=

USA.gov is the U.S. government's official web portal to all federal, state and local government web resources and services.